Inspiration — C6FM5 — position and weather

sailwx.info

Track history (hours):
 
Tides and Currents Weather Stations Pressure Air Temp Water Temp Dewpoint Dewpoint Depression Visibility Wind Speed Wind Dir Waves Ship Positions

Inspiration

Operator: Carnival Cruise Lines

Last reported at 2017-Dec-11 16:56 UTC. Time now 2017-Dec-13 03:39 UTC.
Position N 33°45' W 118°11'.

Type: Ship. MMSI: 309484000.

Date/timePositionNaut miles runAvg speedWind from/ knotsBaromVisibWave heightAir tempDewpointWater temp
2017-Dec-11 16:56N 33°45' W 118°11'0 0.0
2017-Dec-11 16:26N 33°45' W 118°11'0 0.0
2017-Dec-11 15:56N 33°45' W 118°11'0 0.0
2017-Dec-11 14:25N 33°45' W 118°11'0 0.0
2017-Dec-11 14:00N 33°45' W 118°11'0 0.2
2017-Dec-11 13:30N 33°45' W 118°11'6 5.5
2017-Dec-11 12:23N 33°39' W 118°10'11 8.1
2017-Dec-11 11:00N 33°28' W 118°06'4 8.2
2017-Dec-11 10:30N 33°24' W 118°05'5 8.4
2017-Dec-11 09:57N 33°20' W 118°03'4 8.2
2017-Dec-11 09:30N 33°17' W 118°01'4 8.2
2017-Dec-11 09:01N 33°13' W 117°60'4 8.5
2017-Dec-11 08:30N 33°09' W 117°58'5 9.1
2017-Dec-11 08:00N 33°04' W 117°56'5 9.2
2017-Dec-11 07:31N 33°00' W 117°54'4 8.9
2017-Dec-11 07:01N 32°56' W 117°52'4 9.0
2017-Dec-11 06:30N 32°52' W 117°51'5 9.0
2017-Dec-11 06:00N 32°47' W 117°49'5 9.2
2017-Dec-11 05:31N 32°43' W 117°47'5 9.0
2017-Dec-11 05:01N 32°39' W 117°45'5 9.3
2017-Dec-11 04:30N 32°34' W 117°43'5 9.6
2017-Dec-11 04:01N 32°30' W 117°42'5 9.5
2017-Dec-11 03:30N 32°25' W 117°40'5 9.6
2017-Dec-11 03:00N 32°21' W 117°38'5 9.5
2017-Dec-11 02:30N 32°17' W 117°35'24 0.6
2017-Dec-09 11:39N 32°03' W 117°12'213.0
2017-Dec-09 11:30N 32°04' W 117°14'612.7
2017-Dec-09 11:00N 32°08' W 117°20'612.2
2017-Dec-09 10:30N 32°11' W 117°25'611.9
2017-Dec-09 10:00N 32°15' W 117°31'611.9
2017-Dec-09 09:30N 32°20' W 117°34'612.1
2017-Dec-09 09:00N 32°26' W 117°37'612.2
2017-Dec-09 08:30N 32°31' W 117°40'612.6
2017-Dec-09 08:00N 32°37' W 117°43'612.8
2017-Dec-09 07:30N 32°43' W 117°47'612.9
2017-Dec-09 07:01N 32°49' W 117°50'612.9
2017-Dec-09 06:30N 32°55' W 117°53'612.9
2017-Dec-09 06:00N 33°01' W 117°56'612.9
2017-Dec-09 05:30N 33°07' W 117°59'713.2
2017-Dec-09 05:00N 33°13' W 118°03'713.1
2017-Dec-09 04:30N 33°19' W 118°06'713.1
2017-Dec-09 04:00N 33°25' W 118°09'613.0
2017-Dec-09 03:30N 33°31' W 118°11'612.4
2017-Dec-09 03:00N 33°37' W 118°14'9 1.5
2017-Dec-08 21:00N 33°45' W 118°11'6 0.7
2017-Dec-08 12:25N 33°39' W 118°10'5 9.0
2017-Dec-08 11:53N 33°34' W 118°09'4 9.7
2017-Dec-08 11:29N 33°31' W 118°08'5 9.6
2017-Dec-08 11:00N 33°26' W 118°06'712.7
2017-Dec-08 10:29N 33°20' W 118°04'715.7
2017-Dec-08 10:00N 33°13' W 118°01'815.4
2017-Dec-08 09:30N 33°05' W 117°59'815.7
2017-Dec-08 09:00N 32°59' W 117°54'815.6
2017-Dec-08 08:30N 32°51' W 117°50'815.6
2017-Dec-08 08:01N 32°44' W 117°47'815.9
2017-Dec-08 07:31N 32°37' W 117°44'816.2
2017-Dec-08 07:01N 32°30' W 117°39'816.4
2017-Dec-08 06:30N 32°22' W 117°35'19 0.9
2017-Dec-07 09:44N 32°06' W 117°24'2 8.8
2017-Dec-07 09:29N 32°07' W 117°26'5 8.6
2017-Dec-07 08:53N 32°09' W 117°32'3 8.3
2017-Dec-07 08:30N 32°11' W 117°34'4 8.8
2017-Dec-07 08:00N 32°15' W 117°36'4 8.7
2017-Dec-07 07:30N 32°19' W 117°38'4 8.6
2017-Dec-07 07:00N 32°23' W 117°40'4 8.2
2017-Dec-07 06:30N 32°27' W 117°42'4 8.5
2017-Dec-07 06:01N 32°30' W 117°45'4 8.4
2017-Dec-07 05:30N 32°34' W 117°48'4 9.0
2017-Dec-07 05:00N 32°38' W 117°50'611.1
2017-Dec-07 04:30N 32°43' W 117°53'611.1
2017-Dec-07 04:00N 32°47' W 117°56'611.4
2017-Dec-07 03:30N 32°53' W 117°59'611.4
2017-Dec-07 03:00N 32°58' W 118°02'611.4
2017-Dec-07 02:30N 33°03' W 118°05'611.6
2017-Dec-07 02:00N 33°08' W 118°08'611.6
2017-Dec-07 01:30N 33°13' W 118°11'611.5
2017-Dec-07 01:00N 33°18' W 118°15'  
2017-Dec-04 09:45N 33°19' W 118°03'2 8.5
2017-Dec-04 09:30N 33°17' W 118°02'4 7.9
2017-Dec-04 09:01N 33°13' W 118°00'4 8.7
2017-Dec-04 08:31N 33°09' W 117°58'4 8.1
2017-Dec-04 08:01N 33°06' W 117°57'4 8.2
2017-Dec-04 07:31N 33°02' W 117°55'4 8.3
2017-Dec-04 07:01N 32°58' W 117°53'4 8.1
2017-Dec-04 06:31N 32°54' W 117°52'4 7.6
2017-Dec-04 06:01N 32°51' W 117°50'3180.5
2017-Dec-04 06:00N 32°48' W 117°48'1 2.2 290 / 81018.310.8 17.015.418.4
2017-Dec-04 05:30N 32°47' W 117°49'4 7.6
2017-Dec-04 05:01N 32°44' W 117°47'4 7.5
2017-Dec-04 04:31N 32°40' W 117°45'4 7.6
2017-Dec-04 04:01N 32°36' W 117°44'4 7.7
2017-Dec-04 03:31N 32°33' W 117°43'4 7.6
2017-Dec-04 03:00N 32°29' W 117°41'4 7.5
2017-Dec-04 02:31N 32°25' W 117°40'4 8.1
2017-Dec-04 02:01N 32°22' W 117°38'4 7.9
2017-Dec-04 01:30N 32°18' W 117°37'4 8.3
2017-Dec-04 01:00N 32°15' W 117°33'510.7
2017-Dec-04 00:30N 32°11' W 117°29'17 8.9
2017-Dec-03 22:36N 31°58' W 117°16'1 7.7
2017-Dec-03 22:30N 31°58' W 117°15'4 7.4
2017-Dec-03 22:00N 31°55' W 117°13'3 6.9
2017-Dec-03 21:30N 31°52' W 117°14'4 7.8
2017-Dec-03 20:59N 31°52' W 117°19'4 8.2
2017-Dec-03 20:30N 31°52' W 117°24'5 8.7
2017-Dec-03 19:53N 31°52' W 117°30'610.1
2017-Dec-03 19:18N 31°52' W 117°37'310.3
2017-Dec-03 18:58N 31°52' W 117°41'510.0
2017-Dec-03 18:30N 31°52' W 117°47'510.1
2017-Dec-03 17:59N 31°51' W 117°53'5 9.9
2017-Dec-03 17:30N 31°51' W 117°58'510.1
2017-Dec-03 17:01N 31°51' W 118°04'4 8.1
2017-Dec-03 16:31N 31°48' W 118°06'4 7.9
2017-Dec-03 16:01N 31°44' W 118°06'4 7.8
2017-Dec-03 15:28N 31°40' W 118°08'4 7.8
2017-Dec-03 14:57N 31°36' W 118°10'3 7.5
2017-Dec-03 14:30N 31°33' W 118°11'3 6.8
2017-Dec-03 14:00N 31°31' W 118°08'6 7.5
2017-Dec-03 13:12N 31°31' W 118°01'2 7.5
2017-Dec-03 12:57N 31°31' W 117°59'3 7.3
2017-Dec-03 12:30N 31°31' W 117°55'3 7.0
2017-Dec-03 12:00N 31°31' W 117°51'7 7.3
2017-Dec-03 11:01N 31°38' W 117°53'1 8.7
2017-Dec-03 10:57N 31°39' W 117°53'4 8.9
2017-Dec-03 10:30N 31°42' W 117°55'6 7.5
2017-Dec-03 09:45N 31°45' W 117°50'2 7.8
2017-Dec-03 09:27N 31°45' W 117°47'6 7.4
2017-Dec-03 08:37N 31°46' W 117°40'13 7.4
2017-Dec-03 06:53N 31°47' W 117°25'3 7.8
2017-Dec-03 06:30N 31°47' W 117°21'4 8.0
2017-Dec-03 06:00N 31°48' W 117°16'5 8.0
2017-Dec-03 05:26N 31°48' W 117°11'24 9.5
2017-Dec-03 02:55N 31°50' W 116°43'3 0.2
2017-Dec-02 14:02N 31°52' W 116°46'0 8.3
2017-Dec-02 14:00N 31°52' W 116°46'1210.8
2017-Dec-02 12:52N 31°57' W 116°59'512.7
2017-Dec-02 12:26N 31°59' W 117°05'612.8
2017-Dec-02 12:00N 32°02' W 117°11'4268.1
2017-Dec-02 12:00N 32°00' W 117°06'1219.9 340 / 151018.310.8 17.013.717.0
2017-Dec-02 11:24N 32°06' W 117°18'712.3
2017-Dec-02 10:51N 32°10' W 117°24'512.1
2017-Dec-02 10:26N 32°14' W 117°29'511.7
2017-Dec-02 10:00N 32°17' W 117°33'612.1
2017-Dec-02 09:30N 32°23' W 117°36'612.0
2017-Dec-02 09:00N 32°28' W 117°38'611.8
2017-Dec-02 08:30N 32°34' W 117°41'611.8
2017-Dec-02 08:00N 32°39' W 117°44'611.8
2017-Dec-02 07:30N 32°44' W 117°47'612.1
2017-Dec-02 07:00N 32°50' W 117°50'611.9
2017-Dec-02 06:30N 32°55' W 117°53'612.4
2017-Dec-02 06:00N 33°01' W 117°56'612.6
2017-Dec-02 05:30N 33°07' W 117°59'612.8
2017-Dec-02 05:00N 33°12' W 118°02'612.3
2017-Dec-02 04:30N 33°18' W 118°06'612.2
2017-Dec-02 04:00N 33°24' W 118°08'2111.9
2017-Dec-02 04:00N 33°24' W 118°06'713.8 220 / 61018.310.8 18.013.116.0
2017-Dec-02 03:30N 33°29' W 118°11'612.3
2017-Dec-02 03:00N 33°35' W 118°13'611.8
2017-Dec-02 02:30N 33°41' W 118°12'4 3.5
2017-Dec-02 01:21N 33°45' W 118°11'0 0.0
2017-Dec-02 00:57N 33°45' W 118°11'0 0.0
2017-Dec-02 00:27N 33°45' W 118°11'0 0.0
2017-Dec-02 00:00N 33°45' W 118°11'0 0.0
2017-Dec-01 23:30N 33°45' W 118°11'0 0.0
2017-Dec-01 22:59N 33°45' W 118°11'0 0.0
2017-Dec-01 22:26N 33°45' W 118°11'0 0.0
2017-Dec-01 21:50N 33°45' W 118°11'0 0.0
2017-Dec-01 21:20N 33°45' W 118°11'0 0.0
2017-Dec-01 20:55N 33°45' W 118°11'0 0.0
2017-Dec-01 20:25N 33°45' W 118°11'0 0.0
2017-Dec-01 19:49N 33°45' W 118°11'0 0.0
2017-Dec-01 19:25N 33°45' W 118°11'0 0.0
2017-Dec-01 18:55N 33°45' W 118°11'0 0.0
2017-Dec-01 18:18N 33°45' W 118°11'0 0.0
2017-Dec-01 18:00N 33°45' W 118°11'0 0.0
2017-Dec-01 17:18N 33°45' W 118°11'  
Track history (hours):
 
Tides and Currents Weather Stations Pressure Air Temp Water Temp Dewpoint Dewpoint Depression Visibility Wind Speed Wind Dir Waves Ship Positions

Inspiration

Operator: Carnival Cruise Lines

Last reported at 2017-Dec-11 16:56 UTC. Time now 2017-Dec-13 03:39 UTC.
Position N 33°45' W 118°11'.

Type: Ship. MMSI: 309484000.

Date/timePositionNaut miles runAvg speedWind from/ knotsBaromVisibWave heightAir tempDewpointWater temp
2017-Dec-11 16:56N 33°45' W 118°11'0 0.0
2017-Dec-11 16:26N 33°45' W 118°11'0 0.0
2017-Dec-11 15:56N 33°45' W 118°11'0 0.0
2017-Dec-11 14:25N 33°45' W 118°11'0 0.0
2017-Dec-11 14:00N 33°45' W 118°11'0 0.2
2017-Dec-11 13:30N 33°45' W 118°11'6 5.5
2017-Dec-11 12:23N 33°39' W 118°10'11 8.1
2017-Dec-11 11:00N 33°28' W 118°06'4 8.2
2017-Dec-11 10:30N 33°24' W 118°05'5 8.4
2017-Dec-11 09:57N 33°20' W 118°03'4 8.2
2017-Dec-11 09:30N 33°17' W 118°01'4 8.2
2017-Dec-11 09:01N 33°13' W 117°60'4 8.5
2017-Dec-11 08:30N 33°09' W 117°58'5 9.1
2017-Dec-11 08:00N 33°04' W 117°56'5 9.2
2017-Dec-11 07:31N 33°00' W 117°54'4 8.9
2017-Dec-11 07:01N 32°56' W 117°52'4 9.0
2017-Dec-11 06:30N 32°52' W 117°51'5 9.0
2017-Dec-11 06:00N 32°47' W 117°49'5 9.2
2017-Dec-11 05:31N 32°43' W 117°47'5 9.0
2017-Dec-11 05:01N 32°39' W 117°45'5 9.3
2017-Dec-11 04:30N 32°34' W 117°43'5 9.6
2017-Dec-11 04:01N 32°30' W 117°42'5 9.5
2017-Dec-11 03:30N 32°25' W 117°40'5 9.6
2017-Dec-11 03:00N 32°21' W 117°38'5 9.5
2017-Dec-11 02:30N 32°17' W 117°35'24 0.6
2017-Dec-09 11:39N 32°03' W 117°12'213.0
2017-Dec-09 11:30N 32°04' W 117°14'612.7
2017-Dec-09 11:00N 32°08' W 117°20'612.2
2017-Dec-09 10:30N 32°11' W 117°25'611.9
2017-Dec-09 10:00N 32°15' W 117°31'611.9
2017-Dec-09 09:30N 32°20' W 117°34'612.1
2017-Dec-09 09:00N 32°26' W 117°37'612.2
2017-Dec-09 08:30N 32°31' W 117°40'612.6
2017-Dec-09 08:00N 32°37' W 117°43'612.8
2017-Dec-09 07:30N 32°43' W 117°47'612.9
2017-Dec-09 07:01N 32°49' W 117°50'612.9
2017-Dec-09 06:30N 32°55' W 117°53'612.9
2017-Dec-09 06:00N 33°01' W 117°56'612.9
2017-Dec-09 05:30N 33°07' W 117°59'713.2
2017-Dec-09 05:00N 33°13' W 118°03'713.1
2017-Dec-09 04:30N 33°19' W 118°06'713.1
2017-Dec-09 04:00N 33°25' W 118°09'613.0
2017-Dec-09 03:30N 33°31' W 118°11'612.4
2017-Dec-09 03:00N 33°37' W 118°14'9 1.5
2017-Dec-08 21:00N 33°45' W 118°11'6 0.7
2017-Dec-08 12:25N 33°39' W 118°10'5 9.0
2017-Dec-08 11:53N 33°34' W 118°09'4 9.7
2017-Dec-08 11:29N 33°31' W 118°08'5 9.6
2017-Dec-08 11:00N 33°26' W 118°06'712.7
2017-Dec-08 10:29N 33°20' W 118°04'715.7
2017-Dec-08 10:00N 33°13' W 118°01'815.4
2017-Dec-08 09:30N 33°05' W 117°59'815.7
2017-Dec-08 09:00N 32°59' W 117°54'815.6
2017-Dec-08 08:30N 32°51' W 117°50'815.6
2017-Dec-08 08:01N 32°44' W 117°47'815.9
2017-Dec-08 07:31N 32°37' W 117°44'816.2
2017-Dec-08 07:01N 32°30' W 117°39'816.4
2017-Dec-08 06:30N 32°22' W 117°35'19 0.9
2017-Dec-07 09:44N 32°06' W 117°24'2 8.8
2017-Dec-07 09:29N 32°07' W 117°26'5 8.6
2017-Dec-07 08:53N 32°09' W 117°32'3 8.3
2017-Dec-07 08:30N 32°11' W 117°34'4 8.8
2017-Dec-07 08:00N 32°15' W 117°36'4 8.7
2017-Dec-07 07:30N 32°19' W 117°38'4 8.6
2017-Dec-07 07:00N 32°23' W 117°40'4 8.2
2017-Dec-07 06:30N 32°27' W 117°42'4 8.5
2017-Dec-07 06:01N 32°30' W 117°45'4 8.4
2017-Dec-07 05:30N 32°34' W 117°48'4 9.0
2017-Dec-07 05:00N 32°38' W 117°50'611.1
2017-Dec-07 04:30N 32°43' W 117°53'611.1
2017-Dec-07 04:00N 32°47' W 117°56'611.4
2017-Dec-07 03:30N 32°53' W 117°59'611.4
2017-Dec-07 03:00N 32°58' W 118°02'611.4
2017-Dec-07 02:30N 33°03' W 118°05'611.6
2017-Dec-07 02:00N 33°08' W 118°08'611.6
2017-Dec-07 01:30N 33°13' W 118°11'611.5
2017-Dec-07 01:00N 33°18' W 118°15'  
2017-Dec-04 09:45N 33°19' W 118°03'2 8.5
2017-Dec-04 09:30N 33°17' W 118°02'4 7.9
2017-Dec-04 09:01N 33°13' W 118°00'4 8.7
2017-Dec-04 08:31N 33°09' W 117°58'4 8.1
2017-Dec-04 08:01N 33°06' W 117°57'4 8.2
2017-Dec-04 07:31N 33°02' W 117°55'4 8.3
2017-Dec-04 07:01N 32°58' W 117°53'4 8.1
2017-Dec-04 06:31N 32°54' W 117°52'4 7.6
2017-Dec-04 06:01N 32°51' W 117°50'3180.5
2017-Dec-04 06:00N 32°48' W 117°48'1 2.2 290 / 81018.310.8 17.015.418.4
2017-Dec-04 05:30N 32°47' W 117°49'4 7.6
2017-Dec-04 05:01N 32°44' W 117°47'4 7.5
2017-Dec-04 04:31N 32°40' W 117°45'4 7.6
2017-Dec-04 04:01N 32°36' W 117°44'4 7.7
2017-Dec-04 03:31N 32°33' W 117°43'4 7.6
2017-Dec-04 03:00N 32°29' W 117°41'4 7.5
2017-Dec-04 02:31N 32°25' W 117°40'4 8.1
2017-Dec-04 02:01N 32°22' W 117°38'4 7.9
2017-Dec-04 01:30N 32°18' W 117°37'4 8.3
2017-Dec-04 01:00N 32°15' W 117°33'510.7
2017-Dec-04 00:30N 32°11' W 117°29'17 8.9
2017-Dec-03 22:36N 31°58' W 117°16'1 7.7
2017-Dec-03 22:30N 31°58' W 117°15'4 7.4
2017-Dec-03 22:00N 31°55' W 117°13'3 6.9
2017-Dec-03 21:30N 31°52' W 117°14'4 7.8
2017-Dec-03 20:59N 31°52' W 117°19'4 8.2
2017-Dec-03 20:30N 31°52' W 117°24'5 8.7
2017-Dec-03 19:53N 31°52' W 117°30'610.1
2017-Dec-03 19:18N 31°52' W 117°37'310.3
2017-Dec-03 18:58N 31°52' W 117°41'510.0
2017-Dec-03 18:30N 31°52' W 117°47'510.1
2017-Dec-03 17:59N 31°51' W 117°53'5 9.9
2017-Dec-03 17:30N 31°51' W 117°58'510.1
2017-Dec-03 17:01N 31°51' W 118°04'4 8.1
2017-Dec-03 16:31N 31°48' W 118°06'4 7.9
2017-Dec-03 16:01N 31°44' W 118°06'4 7.8
2017-Dec-03 15:28N 31°40' W 118°08'4 7.8
2017-Dec-03 14:57N 31°36' W 118°10'3 7.5
2017-Dec-03 14:30N 31°33' W 118°11'3 6.8
2017-Dec-03 14:00N 31°31' W 118°08'6 7.5
2017-Dec-03 13:12N 31°31' W 118°01'2 7.5
2017-Dec-03 12:57N 31°31' W 117°59'3 7.3
2017-Dec-03 12:30N 31°31' W 117°55'3 7.0
2017-Dec-03 12:00N 31°31' W 117°51'7 7.3
2017-Dec-03 11:01N 31°38' W 117°53'1 8.7
2017-Dec-03 10:57N 31°39' W 117°53'4 8.9
2017-Dec-03 10:30N 31°42' W 117°55'6 7.5
2017-Dec-03 09:45N 31°45' W 117°50'2 7.8
2017-Dec-03 09:27N 31°45' W 117°47'6 7.4
2017-Dec-03 08:37N 31°46' W 117°40'13 7.4
2017-Dec-03 06:53N 31°47' W 117°25'3 7.8
2017-Dec-03 06:30N 31°47' W 117°21'4 8.0
2017-Dec-03 06:00N 31°48' W 117°16'5 8.0
2017-Dec-03 05:26N 31°48' W 117°11'24 9.5
2017-Dec-03 02:55N 31°50' W 116°43'3 0.2
2017-Dec-02 14:02N 31°52' W 116°46'0 8.3
2017-Dec-02 14:00N 31°52' W 116°46'1210.8
2017-Dec-02 12:52N 31°57' W 116°59'512.7
2017-Dec-02 12:26N 31°59' W 117°05'612.8
2017-Dec-02 12:00N 32°02' W 117°11'4268.1
2017-Dec-02 12:00N 32°00' W 117°06'1219.9 340 / 151018.310.8 17.013.717.0
2017-Dec-02 11:24N 32°06' W 117°18'712.3
2017-Dec-02 10:51N 32°10' W 117°24'512.1
2017-Dec-02 10:26N 32°14' W 117°29'511.7
2017-Dec-02 10:00N 32°17' W 117°33'612.1
2017-Dec-02 09:30N 32°23' W 117°36'612.0
2017-Dec-02 09:00N 32°28' W 117°38'611.8
2017-Dec-02 08:30N 32°34' W 117°41'611.8
2017-Dec-02 08:00N 32°39' W 117°44'611.8
2017-Dec-02 07:30N 32°44' W 117°47'612.1
2017-Dec-02 07:00N 32°50' W 117°50'611.9
2017-Dec-02 06:30N 32°55' W 117°53'612.4
2017-Dec-02 06:00N 33°01' W 117°56'612.6
2017-Dec-02 05:30N 33°07' W 117°59'612.8
2017-Dec-02 05:00N 33°12' W 118°02'612.3
2017-Dec-02 04:30N 33°18' W 118°06'612.2
2017-Dec-02 04:00N 33°24' W 118°08'2111.9
2017-Dec-02 04:00N 33°24' W 118°06'713.8 220 / 61018.310.8 18.013.116.0
2017-Dec-02 03:30N 33°29' W 118°11'612.3
2017-Dec-02 03:00N 33°35' W 118°13'611.8
2017-Dec-02 02:30N 33°41' W 118°12'4 3.5
2017-Dec-02 01:21N 33°45' W 118°11'0 0.0
2017-Dec-02 00:57N 33°45' W 118°11'0 0.0
2017-Dec-02 00:27N 33°45' W 118°11'0 0.0
2017-Dec-02 00:00N 33°45' W 118°11'0 0.0
2017-Dec-01 23:30N 33°45' W 118°11'0 0.0
2017-Dec-01 22:59N 33°45' W 118°11'0 0.0
2017-Dec-01 22:26N 33°45' W 118°11'0 0.0
2017-Dec-01 21:50N 33°45' W 118°11'0 0.0
2017-Dec-01 21:20N 33°45' W 118°11'0 0.0
2017-Dec-01 20:55N 33°45' W 118°11'0 0.0
2017-Dec-01 20:25N 33°45' W 118°11'0 0.0
2017-Dec-01 19:49N 33°45' W 118°11'0 0.0
2017-Dec-01 19:25N 33°45' W 118°11'0 0.0
2017-Dec-01 18:55N 33°45' W 118°11'0 0.0
2017-Dec-01 18:18N 33°45' W 118°11'0 0.0
2017-Dec-01 18:00N 33°45' W 118°11'0 0.0
2017-Dec-01 17:18N 33°45' W 118°11'  

Dump ship's entire track history